createdAt,value
2022-10-19T00:01:21.492Z,18.90
2022-10-19T00:03:53.361Z,18.90
2022-10-19T00:06:25.874Z,18.90
2022-10-19T00:08:54.879Z,18.90
2022-10-19T00:11:23.936Z,18.90
2022-10-19T00:13:52.256Z,18.80
2022-10-19T00:16:21.716Z,18.80
2022-10-19T00:18:51.333Z,18.90
2022-10-19T00:21:21.273Z,18.90
2022-10-19T00:23:50.761Z,18.80
2022-10-19T00:26:19.059Z,18.80
2022-10-19T00:28:47.301Z,18.80
2022-10-19T00:31:18.426Z,18.80
2022-10-19T00:33:48.078Z,18.80
2022-10-19T00:36:20.798Z,18.80
2022-10-19T00:38:49.379Z,18.70
2022-10-19T00:41:19.260Z,18.70
2022-10-19T00:44:00.069Z,18.60
2022-10-19T00:46:31.245Z,18.70
2022-10-19T00:49:04.889Z,18.80
2022-10-19T00:51:40.510Z,18.80
2022-10-19T00:54:09.881Z,18.70
2022-10-19T00:56:41.862Z,18.70
2022-10-19T00:59:11.966Z,18.60
2022-10-19T01:01:40.149Z,18.60
2022-10-19T01:04:08.380Z,18.60
2022-10-19T01:06:38.359Z,18.60
2022-10-19T01:09:07.163Z,18.60
2022-10-19T01:11:47.777Z,18.50
2022-10-19T01:14:35.691Z,18.50
2022-10-19T01:17:14.049Z,18.60
2022-10-19T01:20:32.259Z,18.60
2022-10-19T01:23:46.661Z,18.50
2022-10-19T01:26:38.392Z,18.40
2022-10-19T01:29:17.578Z,18.40
2022-10-19T01:31:53.517Z,18.40
2022-10-19T01:34:30.382Z,18.40
2022-10-19T01:37:03.897Z,18.50
2022-10-19T01:39:47.678Z,18.50
2022-10-19T01:42:27.469Z,18.50
2022-10-19T01:45:03.170Z,18.40
2022-10-19T01:47:40.022Z,18.40
2022-10-19T01:50:16.674Z,18.30
2022-10-19T01:52:45.585Z,18.40
2022-10-19T01:55:17.566Z,18.40
2022-10-19T01:57:50.621Z,18.40
2022-10-19T02:00:20.445Z,18.40
2022-10-19T02:02:54.517Z,18.30
2022-10-19T02:05:28.807Z,18.30
2022-10-19T02:08:02.099Z,18.30
2022-10-19T02:10:34.900Z,18.30
2022-10-19T02:13:03.968Z,18.20
2022-10-19T02:15:36.784Z,18.20
2022-10-19T02:18:07.228Z,18.20
2022-10-19T02:20:37.716Z,18.20
2022-10-19T02:23:07.568Z,18.10
2022-10-19T02:25:36.365Z,18.20
2022-10-19T02:28:05.970Z,18.10
2022-10-19T02:30:34.397Z,18.10
2022-10-19T02:33:02.653Z,18.20
2022-10-19T02:35:32.246Z,18.20
2022-10-19T02:38:03.356Z,18.20
2022-10-19T02:40:37.390Z,18.10
2022-10-19T02:43:11.417Z,18.00
2022-10-19T02:45:45.912Z,18.10
2022-10-19T02:48:21.025Z,18.10
2022-10-19T02:50:52.054Z,18.10
2022-10-19T02:53:20.419Z,18.00
2022-10-19T02:58:18.483Z,17.90
2022-10-19T03:00:46.713Z,17.90
2022-10-19T03:03:14.964Z,17.90
2022-10-19T03:05:43.133Z,17.80
2022-10-19T03:08:12.623Z,18.00
2022-10-19T03:10:40.776Z,18.00
2022-10-19T03:13:08.981Z,17.90
2022-10-19T03:15:37.134Z,18.00
2022-10-19T03:18:05.446Z,17.40
2022-10-19T03:20:33.627Z,17.70
2022-10-19T03:23:01.770Z,17.80
2022-10-19T03:25:31.400Z,17.90
2022-10-19T03:27:59.715Z,17.90
2022-10-19T03:30:28.170Z,17.90
2022-10-19T03:32:56.331Z,17.80
2022-10-19T03:35:24.498Z,17.80
2022-10-19T03:37:52.650Z,17.80
2022-10-19T03:40:20.820Z,17.90
2022-10-19T03:42:50.315Z,17.80
2022-10-19T03:45:18.501Z,17.90
2022-10-19T03:47:51.388Z,17.80
2022-10-19T03:50:21.201Z,17.80
2022-10-19T03:52:49.840Z,17.80
2022-10-19T03:55:18.915Z,17.80
2022-10-19T03:57:47.072Z,17.80
2022-10-19T04:00:17.336Z,17.70
2022-10-19T04:02:45.511Z,17.50
2022-10-19T04:05:13.747Z,17.40
2022-10-19T04:07:41.942Z,17.60
2022-10-19T04:10:10.687Z,17.70
2022-10-19T04:12:38.861Z,17.70
2022-10-19T04:15:08.183Z,17.50
2022-10-19T04:17:37.761Z,17.60
2022-10-19T04:20:07.430Z,17.60
2022-10-19T04:22:35.602Z,17.70
2022-10-19T04:25:03.768Z,17.70
2022-10-19T04:27:32.302Z,17.70
2022-10-19T04:30:00.656Z,17.60
2022-10-19T04:32:28.811Z,17.60
2022-10-19T04:34:58.327Z,17.60
2022-10-19T04:37:26.575Z,17.60
2022-10-19T04:39:54.729Z,17.50
2022-10-19T04:42:22.895Z,17.60
2022-10-19T04:44:51.066Z,17.60
2022-10-19T04:47:19.335Z,17.60
2022-10-19T04:49:47.511Z,17.50
2022-10-19T04:52:17.063Z,17.40
2022-10-19T04:54:45.211Z,17.40
2022-10-19T04:57:13.499Z,17.40
2022-10-19T04:59:41.637Z,17.40
2022-10-19T05:02:09.825Z,17.40
2022-10-19T05:04:39.826Z,17.40
2022-10-19T05:07:11.142Z,17.40
2022-10-19T05:09:40.686Z,17.40
2022-10-19T05:12:08.906Z,17.40
2022-10-19T05:14:39.122Z,17.40
2022-10-19T05:17:10.295Z,17.40
2022-10-19T05:19:38.483Z,17.40
2022-10-19T05:22:06.670Z,17.30
2022-10-19T05:24:34.831Z,17.30
2022-10-19T05:27:04.406Z,17.30
2022-10-19T05:29:33.862Z,17.30
2022-10-19T05:32:02.063Z,17.30
2022-10-19T05:34:30.240Z,17.20
2022-10-19T05:36:58.569Z,17.30
2022-10-19T05:39:27.988Z,17.30
2022-10-19T05:41:56.172Z,17.30
2022-10-19T05:44:25.824Z,17.20
2022-10-19T05:46:54.042Z,17.30
2022-10-19T05:49:23.753Z,17.20
2022-10-19T05:51:51.966Z,17.30
2022-10-19T05:54:23.749Z,17.30
2022-10-19T05:56:54.613Z,17.20
2022-10-19T05:59:25.117Z,17.20
2022-10-19T06:01:53.399Z,17.20
2022-10-19T06:04:21.575Z,17.10
2022-10-19T06:06:49.827Z,17.10
2022-10-19T06:09:18.051Z,17.10
2022-10-19T06:11:46.558Z,17.10
2022-10-19T06:14:17.243Z,17.10
2022-10-19T06:16:46.913Z,17.10
2022-10-19T06:19:15.121Z,17.20
2022-10-19T06:21:46.015Z,17.10
2022-10-19T06:24:14.361Z,17.10
2022-10-19T06:26:42.682Z,17.10
2022-10-19T06:29:11.412Z,17.10
2022-10-19T06:31:39.597Z,17.00
2022-10-19T06:34:09.181Z,16.90
2022-10-19T06:36:37.472Z,17.00
2022-10-19T06:39:05.911Z,17.10
2022-10-19T06:41:34.341Z,17.00
2022-10-19T06:44:02.550Z,17.10
2022-10-19T06:46:32.271Z,17.00
2022-10-19T06:49:03.023Z,17.00
2022-10-19T06:51:34.135Z,17.10
2022-10-19T06:54:02.809Z,17.10
2022-10-19T06:56:31.313Z,17.00
2022-10-19T06:59:00.053Z,17.00
2022-10-19T07:01:28.438Z,16.90
2022-10-19T07:03:56.699Z,17.00
2022-10-19T07:06:27.426Z,17.00
2022-10-19T07:08:56.942Z,17.10
2022-10-19T07:11:25.234Z,16.90
2022-10-19T07:13:54.364Z,16.70
2022-10-19T07:16:23.313Z,16.70
2022-10-19T07:18:53.584Z,15.80
2022-10-19T07:21:24.010Z,16.40
2022-10-19T07:23:52.646Z,16.50
2022-10-19T07:26:26.661Z,16.60
2022-10-19T07:28:57.383Z,16.20
2022-10-19T07:31:26.932Z,16.10
2022-10-19T07:33:56.429Z,15.50
2022-10-19T07:36:25.643Z,14.90
2022-10-19T07:38:53.999Z,15.20
2022-10-19T07:41:26.063Z,15.30
2022-10-19T07:43:55.248Z,14.60
2022-10-19T07:46:27.259Z,15.00
2022-10-19T07:48:55.849Z,14.40
2022-10-19T07:51:24.459Z,15.40
2022-10-19T07:53:53.031Z,14.80
2022-10-19T07:56:25.638Z,15.20
2022-10-19T07:58:56.445Z,16.00
2022-10-19T08:01:27.554Z,16.10
2022-10-19T08:04:43.177Z,15.50
2022-10-19T08:06:45.809Z,14.80
2022-10-19T08:09:33.485Z,13.70
2022-10-19T08:12:03.742Z,14.10
2022-10-19T08:14:32.187Z,12.60
2022-10-19T08:17:00.920Z,12.30
2022-10-19T08:19:29.143Z,13.60
2022-10-19T08:21:57.364Z,12.70
2022-10-19T08:24:25.512Z,12.70
2022-10-19T08:26:53.697Z,12.60
2022-10-19T08:29:25.516Z,12.10
2022-10-19T08:31:56.013Z,11.90
2022-10-19T08:34:24.296Z,12.50
2022-10-19T08:36:52.554Z,12.30
2022-10-19T08:39:20.758Z,12.00
2022-10-19T09:58:06.541Z,14.80
2022-10-19T10:00:42.257Z,15.00
2022-10-19T10:03:26.047Z,14.20
2022-10-19T10:05:56.917Z,14.80
2022-10-19T10:08:30.754Z,15.00
2022-10-19T10:11:08.134Z,14.10
2022-10-19T10:13:42.754Z,14.30
2022-10-19T10:16:16.176Z,14.30
2022-10-19T10:18:56.556Z,15.00
2022-10-19T10:21:27.441Z,15.40
2022-10-19T10:24:06.505Z,14.90
2022-10-19T10:26:41.746Z,14.60
2022-10-19T10:29:24.728Z,14.90
2022-10-19T10:31:56.819Z,14.70
2022-10-19T10:34:46.083Z,14.80
2022-10-19T10:37:23.165Z,15.20
2022-10-19T10:39:55.769Z,14.70
2022-10-19T10:42:35.059Z,15.10
2022-10-19T10:45:03.880Z,15.00
2022-10-19T10:47:32.942Z,14.70
2022-10-19T10:50:07.732Z,14.90
2022-10-19T10:52:37.152Z,14.80
2022-10-19T10:55:18.943Z,14.90
2022-10-19T10:57:51.483Z,14.80
2022-10-19T11:00:24.028Z,14.80
2022-10-19T11:03:01.234Z,14.80
2022-10-19T11:05:35.485Z,15.20
2022-10-19T11:08:12.687Z,15.00
2022-10-19T11:10:47.668Z,15.60
2022-10-19T11:13:22.551Z,15.40
2022-10-19T11:15:55.941Z,15.50
2022-10-19T11:18:30.473Z,15.40
2022-10-19T11:21:08.164Z,15.30
2022-10-19T11:23:57.299Z,15.70
2022-10-19T11:26:44.781Z,15.80
2022-10-19T11:29:39.183Z,15.50
2022-10-19T11:32:17.458Z,15.50
2022-10-19T11:35:01.965Z,15.50
2022-10-19T11:37:49.600Z,15.90
2022-10-19T11:40:28.286Z,15.50
2022-10-19T11:43:04.932Z,15.30
2022-10-19T11:45:48.465Z,15.80
2022-10-19T11:48:35.417Z,15.40
2022-10-19T11:51:21.050Z,15.70
2022-10-19T11:54:04.545Z,15.70
2022-10-19T11:57:01.582Z,15.70
2022-10-19T11:59:46.054Z,15.60
2022-10-19T12:02:43.065Z,15.60
2022-10-19T12:05:14.802Z,15.70
2022-10-19T12:07:57.885Z,15.20
2022-10-19T12:10:35.317Z,15.60
2022-10-19T12:13:06.565Z,15.40
2022-10-19T12:15:40.975Z,15.60
2022-10-19T12:18:19.906Z,15.90
2022-10-19T12:20:51.966Z,15.70
2022-10-19T12:23:28.886Z,16.10
2022-10-19T12:26:01.487Z,16.40
2022-10-19T12:28:32.797Z,16.60
2022-10-19T12:31:03.045Z,16.60
2022-10-19T12:33:45.449Z,15.90
2022-10-19T12:36:26.281Z,15.80
2022-10-19T12:39:03.518Z,16.40
2022-10-19T12:41:45.351Z,16.60
2022-10-19T12:49:49.927Z,16.80
2022-10-19T12:52:41.530Z,16.40
2022-10-19T12:55:34.710Z,17.10
2022-10-19T12:58:17.478Z,16.40
2022-10-19T13:01:00.642Z,16.50
2022-10-19T13:03:32.864Z,16.50
2022-10-19T13:06:08.563Z,16.20
2022-10-19T13:08:44.539Z,16.50
2022-10-19T13:11:15.625Z,16.30
2022-10-19T13:14:06.076Z,16.20
2022-10-19T13:16:59.424Z,16.50
2022-10-19T13:19:27.958Z,16.50
2022-10-19T13:22:27.616Z,16.80
2022-10-19T13:25:26.821Z,16.60
2022-10-19T13:27:57.472Z,16.70
2022-10-19T13:31:08.137Z,16.30
2022-10-19T13:34:01.463Z,16.20
2022-10-19T13:36:29.842Z,16.20
2022-10-19T13:39:13.067Z,16.40
2022-10-19T13:41:56.294Z,16.40
2022-10-19T13:44:35.500Z,16.50
2022-10-19T13:50:35.489Z,16.40
2022-10-19T13:53:30.238Z,16.60
2022-10-19T13:56:28.992Z,16.50
2022-10-19T13:59:54.842Z,16.20
2022-10-19T14:03:01.730Z,15.90
2022-10-19T14:06:08.807Z,16.30
2022-10-19T14:09:22.521Z,16.00
2022-10-19T14:11:54.914Z,16.00
2022-10-19T14:14:24.985Z,16.20
2022-10-19T14:16:59.760Z,15.70
2022-10-19T14:19:41.947Z,16.00
2022-10-19T14:22:27.191Z,15.90
2022-10-19T14:25:03.288Z,15.70
2022-10-19T14:27:32.687Z,16.00
2022-10-19T14:30:01.298Z,15.90
2022-10-19T14:32:30.999Z,16.40
2022-10-19T14:35:06.427Z,16.20
2022-10-19T14:37:34.945Z,15.80
2022-10-19T14:40:09.161Z,15.60
2022-10-19T14:42:43.465Z,16.10
2022-10-19T14:45:16.661Z,15.60
2022-10-19T14:47:58.009Z,15.60
2022-10-19T14:50:39.569Z,15.70
2022-10-19T14:53:34.227Z,15.90
2022-10-19T14:56:07.170Z,15.40
2022-10-19T14:58:41.662Z,15.80
2022-10-19T15:01:12.503Z,16.00
2022-10-19T15:03:44.213Z,15.50
2022-10-19T15:06:22.827Z,15.80
2022-10-19T15:11:31.442Z,16.10
2022-10-19T15:14:04.863Z,15.60
2022-10-19T15:16:43.860Z,15.40
2022-10-19T15:19:25.919Z,15.40
2022-10-19T15:22:16.460Z,15.40
2022-10-19T15:25:01.799Z,15.70
2022-10-19T15:27:36.086Z,16.20
2022-10-19T15:30:23.644Z,16.00
2022-10-19T15:32:57.456Z,15.80
2022-10-19T15:38:09.910Z,15.60
2022-10-19T15:40:41.629Z,15.30
2022-10-19T15:43:37.700Z,15.10
2022-10-19T15:46:08.258Z,15.40
2022-10-19T15:48:51.141Z,15.10
2022-10-19T15:51:47.605Z,15.20
2022-10-19T15:54:19.560Z,15.40
2022-10-19T15:56:52.577Z,15.80
2022-10-19T15:59:23.811Z,15.40
2022-10-19T16:01:53.781Z,15.50
2022-10-19T16:04:24.113Z,15.00
2022-10-19T16:06:52.402Z,14.80
2022-10-19T16:09:24.502Z,15.00
2022-10-19T16:11:56.910Z,15.00
2022-10-19T16:14:26.446Z,15.50
2022-10-19T16:16:55.760Z,15.20
2022-10-19T16:19:24.070Z,14.60
2022-10-19T16:21:52.290Z,14.40
2022-10-19T16:24:22.005Z,14.50
2022-10-19T16:26:50.345Z,14.40
2022-10-19T16:29:18.543Z,14.80
2022-10-19T16:31:46.709Z,14.50
2022-10-19T16:34:14.904Z,14.60
2022-10-19T16:36:43.149Z,14.80
2022-10-19T16:39:11.370Z,14.70
2022-10-19T16:41:40.922Z,15.10
2022-10-19T16:44:12.072Z,14.90
2022-10-19T16:46:40.426Z,15.00
2022-10-19T16:49:08.627Z,15.10
2022-10-19T16:51:38.301Z,14.20
2022-10-19T16:54:09.591Z,14.20
2022-10-19T16:56:44.573Z,14.50
2022-10-19T16:59:15.083Z,14.70
2022-10-19T17:01:45.425Z,15.20
2022-10-19T17:04:14.314Z,15.80
2022-10-19T17:06:43.052Z,15.30
2022-10-19T17:12:00.914Z,14.90
2022-10-19T17:14:29.172Z,14.90
2022-10-19T17:16:57.375Z,14.80
2022-10-19T17:19:25.649Z,14.80
2022-10-19T17:21:56.533Z,14.60
2022-10-19T17:24:25.016Z,14.20
2022-10-19T17:26:54.351Z,14.20
2022-10-19T17:29:24.523Z,13.60
2022-10-19T17:31:52.764Z,13.90
2022-10-19T17:34:20.949Z,13.80
2022-10-19T17:36:49.267Z,14.00
2022-10-19T17:39:22.142Z,13.70
2022-10-19T17:41:53.226Z,13.50
2022-10-19T17:44:24.053Z,14.10
2022-10-19T17:46:52.208Z,13.80
2022-10-19T17:49:20.363Z,13.30
2022-10-19T17:51:48.541Z,14.30
2022-10-19T17:54:16.826Z,13.90
2022-10-19T17:56:45.996Z,13.60
2022-10-19T17:59:14.646Z,13.10
2022-10-19T18:01:44.262Z,13.40
2022-10-19T18:04:12.523Z,13.00
2022-10-19T18:06:40.854Z,13.20
2022-10-19T18:09:10.659Z,13.60
2022-10-19T18:11:42.943Z,13.70
2022-10-19T18:14:13.428Z,12.90
2022-10-19T18:16:46.341Z,13.60
2022-10-19T18:19:16.205Z,13.80
